TNO1990 SVBC-TFFR
Flight info
| Callsign | TNO1990 |
|---|---|
| Flight time | 1h 6m |
| Altitude | 23000 |
| Route | ARVEX1 PORGA W14 MTA A561 GND A324 FOF A312 DOM DOM2S |
| Aircraft | B738/M-SDE2E3FGHIRWXY/LB1 |
Departure
| Time | 2026-04-26 15:51 |
|---|---|
| Airport | General José Antonio Anzoategui International Airport (SVBC) |
Arrival
| Time | 2026-04-26 16:57 |
|---|---|
| Airport | Maryse Condé International Airport (TFFR) |
| Time | Latitude | Longitude | Altitude | Speed | Heading |
|---|---|---|---|---|---|
| 2026-04-26 15:40 | 10.10338 | -64.68284 | 33 ft | 0 kts | 52° |
| 2026-04-26 15:46 | 10.10333 | -64.68290 | 34 ft | 4 kts | 52° |
| 2026-04-26 15:46 | 10.10316 | -64.68312 | 36 ft | 4 kts | 52° |
| 2026-04-26 15:46 | 10.10305 | -64.68327 | 34 ft | 4 kts | 59° |
| 2026-04-26 15:47 | 10.10290 | -64.68359 | 19 ft | 4 kts | 72° |
| 2026-04-26 15:47 | 10.10285 | -64.68374 | 21 ft | 2 kts | 72° |
| 2026-04-26 15:49 | 10.10285 | -64.68358 | 21 ft | 6 kts | 101° |
| 2026-04-26 15:49 | 10.10248 | -64.68324 | 22 ft | 9 kts | 147° |
| 2026-04-26 15:50 | 10.10187 | -64.68286 | 22 ft | 12 kts | 154° |
| 2026-04-26 15:50 | 10.10117 | -64.68319 | 23 ft | 13 kts | 234° |
| 2026-04-26 15:50 | 10.10072 | -64.68396 | 23 ft | 13 kts | 262° |
| 2026-04-26 15:50 | 10.10149 | -64.68474 | 24 ft | 27 kts | 322° |
| 2026-04-26 15:51 | 10.10509 | -64.68751 | 23 ft | 111 kts | 323° |
| 2026-04-26 15:51 | 10.11335 | -64.69392 | 231 ft | 173 kts | 324° |
| 2026-04-26 15:51 | 10.12335 | -64.70153 | 1167 ft | 188 kts | 326° |
| 2026-04-26 15:51 | 10.13463 | -64.70955 | 2047 ft | 206 kts | 328° |
| 2026-04-26 15:52 | 10.14733 | -64.71789 | 2572 ft | 233 kts | 328° |
| 2026-04-26 15:52 | 10.16242 | -64.72621 | 2793 ft | 256 kts | 346° |
| 2026-04-26 15:52 | 10.17994 | -64.72763 | 3299 ft | 262 kts | 14° |
| 2026-04-26 15:52 | 10.19156 | -64.72355 | 3701 ft | 264 kts | 32° |
| 2026-04-26 15:53 | 10.20938 | -64.70736 | 4920 ft | 257 kts | 54° |
| 2026-04-26 15:53 | 10.22091 | -64.69314 | 5811 ft | 263 kts | 54° |
| 2026-04-26 15:53 | 10.23257 | -64.67861 | 6565 ft | 272 kts | 54° |
| 2026-04-26 15:53 | 10.24479 | -64.66337 | 7366 ft | 279 kts | 53° |
| 2026-04-26 15:54 | 10.25704 | -64.64813 | 8140 ft | 284 kts | 53° |
| 2026-04-26 15:54 | 10.27038 | -64.63328 | 9019 ft | 289 kts | 39° |
| 2026-04-26 15:54 | 10.28850 | -64.62397 | 9904 ft | 295 kts | 24° |
| 2026-04-26 15:54 | 10.30802 | -64.61653 | 10508 ft | 308 kts | 22° |
| 2026-04-26 15:55 | 10.32900 | -64.60869 | 10696 ft | 334 kts | 22° |
| 2026-04-26 15:55 | 10.35165 | -64.60022 | 10898 ft | 357 kts | 22° |
| 2026-04-26 15:55 | 10.37513 | -64.59137 | 11363 ft | 368 kts | 22° |
| 2026-04-26 15:55 | 10.39925 | -64.58223 | 12031 ft | 371 kts | 22° |
| 2026-04-26 15:56 | 10.42354 | -64.57296 | 12749 ft | 374 kts | 22° |
| 2026-04-26 15:56 | 10.44809 | -64.56356 | 13432 ft | 378 kts | 22° |
| 2026-04-26 15:56 | 10.47252 | -64.55420 | 14056 ft | 381 kts | 22° |
| 2026-04-26 15:56 | 10.49783 | -64.54521 | 14628 ft | 386 kts | 19° |
| 2026-04-26 15:57 | 10.52360 | -64.53684 | 15196 ft | 389 kts | 20° |
| 2026-04-26 15:57 | 10.54773 | -64.52507 | 15731 ft | 391 kts | 36° |
| 2026-04-26 15:57 | 10.56779 | -64.50642 | 16300 ft | 391 kts | 52° |
| 2026-04-26 15:57 | 10.57838 | -64.49151 | 16656 ft | 393 kts | 59° |
| 2026-04-26 15:58 | 10.59769 | -64.45958 | 17336 ft | 399 kts | 59° |
| 2026-04-26 15:58 | 10.61232 | -64.43537 | 17851 ft | 403 kts | 59° |
| 2026-04-26 15:58 | 10.62718 | -64.41098 | 18344 ft | 407 kts | 59° |
| 2026-04-26 15:58 | 10.64225 | -64.38645 | 18785 ft | 410 kts | 59° |
| 2026-04-26 15:59 | 10.65763 | -64.36189 | 19239 ft | 413 kts | 56° |
| 2026-04-26 15:59 | 10.67608 | -64.33986 | 19705 ft | 417 kts | 44° |
| 2026-04-26 15:59 | 10.69835 | -64.32080 | 20185 ft | 419 kts | 40° |
| 2026-04-26 15:59 | 10.72115 | -64.30220 | 20616 ft | 422 kts | 39° |
| 2026-04-26 16:00 | 10.74421 | -64.28347 | 21028 ft | 425 kts | 39° |
| 2026-04-26 16:00 | 10.76739 | -64.26457 | 21444 ft | 428 kts | 39° |
| 2026-04-26 16:00 | 10.79067 | -64.24547 | 21858 ft | 431 kts | 39° |
| 2026-04-26 16:00 | 10.81378 | -64.22640 | 22260 ft | 433 kts | 40° |
| 2026-04-26 16:01 | 10.83726 | -64.20694 | 22652 ft | 436 kts | 40° |
| 2026-04-26 16:01 | 10.86082 | -64.18736 | 23037 ft | 438 kts | 40° |
| 2026-04-26 16:01 | 10.88455 | -64.16761 | 23374 ft | 442 kts | 40° |
| 2026-04-26 16:01 | 10.90854 | -64.14764 | 23648 ft | 446 kts | 40° |
| 2026-04-26 16:02 | 10.93260 | -64.12759 | 23989 ft | 447 kts | 39° |
| 2026-04-26 16:02 | 10.95669 | -64.10751 | 24260 ft | 450 kts | 39° |
| 2026-04-26 16:02 | 10.98077 | -64.08745 | 24534 ft | 453 kts | 39° |
| 2026-04-26 16:02 | 10.99730 | -64.07366 | 24722 ft | 455 kts | 40° |
| 2026-04-26 16:03 | 11.02979 | -64.04658 | 25154 ft | 456 kts | 40° |
| 2026-04-26 16:03 | 11.05449 | -64.02599 | 25377 ft | 460 kts | 40° |
| 2026-04-26 16:03 | 11.07927 | -64.00532 | 25655 ft | 462 kts | 40° |
| 2026-04-26 16:03 | 11.10415 | -63.98456 | 25978 ft | 462 kts | 40° |
| 2026-04-26 16:04 | 11.12883 | -63.96396 | 26206 ft | 466 kts | 40° |
| 2026-04-26 16:04 | 11.15407 | -63.94289 | 26465 ft | 468 kts | 40° |
| 2026-04-26 16:04 | 11.17930 | -63.92182 | 26723 ft | 470 kts | 40° |
| 2026-04-26 16:04 | 11.20461 | -63.90069 | 26953 ft | 473 kts | 40° |
| 2026-04-26 16:05 | 11.23011 | -63.87939 | 27245 ft | 474 kts | 39° |
| 2026-04-26 16:05 | 11.25570 | -63.85801 | 27475 ft | 476 kts | 40° |
| 2026-04-26 16:05 | 11.28105 | -63.83683 | 27717 ft | 478 kts | 40° |
| 2026-04-26 16:05 | 11.30685 | -63.81528 | 27963 ft | 480 kts | 39° |
| 2026-04-26 16:06 | 11.33280 | -63.79358 | 28133 ft | 483 kts | 40° |
| 2026-04-26 16:06 | 11.35888 | -63.77177 | 28328 ft | 486 kts | 40° |
| 2026-04-26 16:06 | 11.38501 | -63.74991 | 28568 ft | 487 kts | 40° |
| 2026-04-26 16:06 | 11.41124 | -63.72797 | 28788 ft | 489 kts | 40° |
| 2026-04-26 16:07 | 11.42903 | -63.71308 | 28944 ft | 489 kts | 40° |
| 2026-04-26 16:07 | 11.45505 | -63.69131 | 29171 ft | 491 kts | 39° |
| 2026-04-26 16:07 | 11.48139 | -63.66926 | 29554 ft | 488 kts | 39° |
| 2026-04-26 16:07 | 11.50771 | -63.64722 | 29760 ft | 490 kts | 39° |
| 2026-04-26 16:08 | 11.53410 | -63.62511 | 29942 ft | 490 kts | 39° |
| 2026-04-26 16:08 | 11.58680 | -63.58096 | 29988 ft | 492 kts | 39° |
| 2026-04-26 16:09 | 11.63946 | -63.53680 | 29992 ft | 493 kts | 39° |
| 2026-04-26 16:09 | 11.69251 | -63.49231 | 29991 ft | 493 kts | 39° |
| 2026-04-26 16:10 | 11.74562 | -63.44774 | 29982 ft | 494 kts | 39° |
| 2026-04-26 16:10 | 11.79834 | -63.40347 | 29984 ft | 493 kts | 39° |
| 2026-04-26 16:11 | 11.85146 | -63.35885 | 29993 ft | 493 kts | 39° |
| 2026-04-26 16:11 | 11.90458 | -63.31421 | 29991 ft | 494 kts | 39° |
| 2026-04-26 16:12 | 11.95729 | -63.26988 | 29988 ft | 494 kts | 39° |
| 2026-04-26 16:12 | 12.03685 | -63.20293 | 29989 ft | 493 kts | 39° |
| 2026-04-26 16:13 | 12.08981 | -63.15834 | 29993 ft | 493 kts | 39° |
| 2026-04-26 16:13 | 12.14284 | -63.11366 | 29995 ft | 494 kts | 39° |
| 2026-04-26 16:14 | 12.19585 | -63.06898 | 29996 ft | 493 kts | 39° |
| 2026-04-26 16:15 | 12.27503 | -63.00219 | 29994 ft | 493 kts | 39° |
| 2026-04-26 16:15 | 12.32799 | -62.95748 | 29995 ft | 493 kts | 39° |
| 2026-04-26 16:16 | 12.40756 | -62.89028 | 29996 ft | 493 kts | 39° |
| 2026-04-26 16:16 | 12.46052 | -62.84552 | 29999 ft | 493 kts | 39° |
| 2026-04-26 16:17 | 12.51344 | -62.80077 | 29994 ft | 493 kts | 39° |
| 2026-04-26 16:17 | 12.56600 | -62.75629 | 30000 ft | 494 kts | 39° |
| 2026-04-26 16:18 | 12.64555 | -62.68893 | 30000 ft | 494 kts | 39° |
| 2026-04-26 16:19 | 12.72494 | -62.62166 | 30004 ft | 495 kts | 39° |
| 2026-04-26 16:20 | 12.80460 | -62.55409 | 30002 ft | 496 kts | 39° |
| 2026-04-26 16:20 | 12.88437 | -62.48638 | 29996 ft | 496 kts | 39° |
| 2026-04-26 16:21 | 12.93715 | -62.44155 | 30003 ft | 495 kts | 39° |
| 2026-04-26 16:21 | 12.99031 | -62.39636 | 30007 ft | 495 kts | 39° |
| 2026-04-26 16:22 | 13.04334 | -62.35126 | 30008 ft | 495 kts | 39° |
| 2026-04-26 16:22 | 13.09638 | -62.30613 | 30007 ft | 495 kts | 39° |
| 2026-04-26 16:23 | 13.14902 | -62.26131 | 30006 ft | 495 kts | 39° |
| 2026-04-26 16:23 | 13.20201 | -62.21616 | 30001 ft | 495 kts | 39° |
| 2026-04-26 16:24 | 13.25504 | -62.17096 | 30007 ft | 494 kts | 39° |
| 2026-04-26 16:24 | 13.30792 | -62.12588 | 30007 ft | 494 kts | 39° |
| 2026-04-26 16:25 | 13.36667 | -62.09064 | 30007 ft | 492 kts | 19° |
| 2026-04-26 16:25 | 13.43155 | -62.06774 | 30007 ft | 491 kts | 18° |
| 2026-04-26 16:26 | 13.48548 | -62.04904 | 30006 ft | 491 kts | 18° |
| 2026-04-26 16:26 | 13.56082 | -62.02228 | 30004 ft | 491 kts | 19° |
| 2026-04-26 16:27 | 13.62488 | -61.99914 | 30008 ft | 491 kts | 19° |
| 2026-04-26 16:27 | 13.68958 | -61.97569 | 30007 ft | 491 kts | 19° |
| 2026-04-26 16:28 | 13.75404 | -61.95233 | 30007 ft | 491 kts | 19° |
| 2026-04-26 16:28 | 13.82028 | -61.93883 | 30013 ft | 488 kts | 0° |
| 2026-04-26 16:29 | 13.88781 | -61.94531 | 30022 ft | 486 kts | 350° |
| 2026-04-26 16:29 | 13.95456 | -61.95567 | 30004 ft | 486 kts | 350° |
| 2026-04-26 16:30 | 14.02176 | -61.96578 | 30009 ft | 486 kts | 350° |
| 2026-04-26 16:30 | 14.08843 | -61.97539 | 30013 ft | 486 kts | 351° |
| 2026-04-26 16:31 | 14.15547 | -61.98489 | 30011 ft | 486 kts | 351° |
| 2026-04-26 16:31 | 14.22250 | -61.99440 | 30013 ft | 486 kts | 351° |
| 2026-04-26 16:32 | 14.27825 | -62.00233 | 30011 ft | 486 kts | 351° |
| 2026-04-26 16:32 | 14.35668 | -62.01350 | 30019 ft | 486 kts | 351° |
| 2026-04-26 16:33 | 14.42341 | -62.02302 | 30018 ft | 486 kts | 351° |
| 2026-04-26 16:33 | 14.49048 | -62.03259 | 30012 ft | 486 kts | 351° |
| 2026-04-26 16:34 | 14.55747 | -62.04215 | 30007 ft | 486 kts | 350° |
| 2026-04-26 16:34 | 14.62414 | -62.05168 | 30021 ft | 486 kts | 351° |
| 2026-04-26 16:35 | 14.69117 | -62.06126 | 30018 ft | 486 kts | 351° |
| 2026-04-26 16:35 | 14.75831 | -62.07086 | 30016 ft | 486 kts | 350° |
| 2026-04-26 16:36 | 14.82531 | -62.08045 | 30021 ft | 486 kts | 351° |
| 2026-04-26 16:36 | 14.89206 | -62.09001 | 30014 ft | 486 kts | 351° |
| 2026-04-26 16:37 | 14.95920 | -62.09963 | 30018 ft | 486 kts | 350° |
| 2026-04-26 16:37 | 14.99302 | -62.10448 | 29243 ft | 493 kts | 350° |
| 2026-04-26 16:37 | 15.02690 | -62.10934 | 28433 ft | 490 kts | 350° |
| 2026-04-26 16:38 | 15.06036 | -62.11414 | 27508 ft | 490 kts | 350° |
| 2026-04-26 16:38 | 15.09416 | -62.11899 | 26561 ft | 490 kts | 350° |
| 2026-04-26 16:38 | 15.12794 | -62.12383 | 25868 ft | 485 kts | 350° |
| 2026-04-26 16:38 | 15.16131 | -62.12862 | 25146 ft | 481 kts | 350° |
| 2026-04-26 16:39 | 15.19444 | -62.13337 | 24448 ft | 477 kts | 350° |
| 2026-04-26 16:39 | 15.22681 | -62.13802 | 23758 ft | 474 kts | 350° |
| 2026-04-26 16:39 | 15.25932 | -62.14269 | 22965 ft | 471 kts | 350° |
| 2026-04-26 16:39 | 15.29172 | -62.14735 | 22238 ft | 465 kts | 350° |
| 2026-04-26 16:40 | 15.32361 | -62.15194 | 21539 ft | 460 kts | 350° |
| 2026-04-26 16:40 | 15.35525 | -62.15649 | 20855 ft | 454 kts | 350° |
| 2026-04-26 16:40 | 15.38649 | -62.16099 | 20185 ft | 450 kts | 350° |
| 2026-04-26 16:40 | 15.41693 | -62.16537 | 19507 ft | 446 kts | 351° |
| 2026-04-26 16:41 | 15.44755 | -62.16979 | 18841 ft | 442 kts | 351° |
| 2026-04-26 16:41 | 15.47793 | -62.17417 | 18137 ft | 439 kts | 351° |
| 2026-04-26 16:41 | 15.50802 | -62.17850 | 17406 ft | 434 kts | 351° |
| 2026-04-26 16:41 | 15.53780 | -62.18279 | 16733 ft | 429 kts | 351° |
| 2026-04-26 16:42 | 15.56724 | -62.18701 | 16077 ft | 424 kts | 351° |
| 2026-04-26 16:42 | 15.59626 | -62.18785 | 15426 ft | 421 kts | 4° |
| 2026-04-26 16:42 | 15.62483 | -62.18150 | 14819 ft | 418 kts | 17° |
| 2026-04-26 16:42 | 15.65117 | -62.16920 | 14218 ft | 414 kts | 28° |
| 2026-04-26 16:43 | 15.67609 | -62.15421 | 13552 ft | 411 kts | 30° |
| 2026-04-26 16:43 | 15.70067 | -62.13918 | 12876 ft | 407 kts | 30° |
| 2026-04-26 16:43 | 15.72493 | -62.12435 | 12243 ft | 403 kts | 30° |
| 2026-04-26 16:43 | 15.74874 | -62.10987 | 11629 ft | 399 kts | 30° |
| 2026-04-26 16:44 | 15.77269 | -62.09540 | 11163 ft | 392 kts | 30° |
| 2026-04-26 16:44 | 15.79597 | -62.08139 | 10942 ft | 378 kts | 30° |
| 2026-04-26 16:44 | 15.81811 | -62.06811 | 10790 ft | 364 kts | 30° |
| 2026-04-26 16:44 | 15.83970 | -62.05518 | 10635 ft | 352 kts | 30° |
| 2026-04-26 16:45 | 15.86051 | -62.04272 | 10488 ft | 341 kts | 30° |
| 2026-04-26 16:45 | 15.88078 | -62.03058 | 10344 ft | 330 kts | 30° |
| 2026-04-26 16:45 | 15.90039 | -62.01885 | 10205 ft | 320 kts | 30° |
| 2026-04-26 16:45 | 15.91942 | -62.00745 | 10076 ft | 311 kts | 30° |
| 2026-04-26 16:46 | 15.93797 | -61.99634 | 9968 ft | 301 kts | 30° |
| 2026-04-26 16:46 | 15.95609 | -61.98549 | 9555 ft | 304 kts | 30° |
| 2026-04-26 16:46 | 15.97445 | -61.97448 | 9187 ft | 304 kts | 30° |
| 2026-04-26 16:46 | 15.99238 | -61.96374 | 8853 ft | 297 kts | 30° |
| 2026-04-26 16:47 | 16.01012 | -61.95311 | 8548 ft | 291 kts | 31° |
| 2026-04-26 16:47 | 16.02764 | -61.94261 | 8252 ft | 290 kts | 31° |
| 2026-04-26 16:47 | 16.04515 | -61.93210 | 7959 ft | 289 kts | 31° |
| 2026-04-26 16:47 | 16.06255 | -61.92166 | 7666 ft | 288 kts | 31° |
| 2026-04-26 16:48 | 16.07993 | -61.91123 | 7355 ft | 288 kts | 32° |
| 2026-04-26 16:48 | 16.09718 | -61.90088 | 7065 ft | 286 kts | 31° |
| 2026-04-26 16:48 | 16.11446 | -61.89050 | 6774 ft | 286 kts | 31° |
| 2026-04-26 16:48 | 16.13168 | -61.88017 | 6492 ft | 285 kts | 31° |
| 2026-04-26 16:49 | 16.14883 | -61.86987 | 6178 ft | 284 kts | 32° |
| 2026-04-26 16:49 | 16.16570 | -61.85973 | 5887 ft | 283 kts | 32° |
| 2026-04-26 16:49 | 16.18265 | -61.84956 | 5744 ft | 276 kts | 32° |
| 2026-04-26 16:49 | 16.19902 | -61.83972 | 5615 ft | 268 kts | 31° |
| 2026-04-26 16:50 | 16.21497 | -61.83014 | 5498 ft | 260 kts | 32° |
| 2026-04-26 16:50 | 16.23041 | -61.82086 | 5393 ft | 253 kts | 32° |
| 2026-04-26 16:50 | 16.24532 | -61.81189 | 5292 ft | 246 kts | 32° |
| 2026-04-26 16:50 | 16.26000 | -61.80307 | 5113 ft | 242 kts | 33° |
| 2026-04-26 16:51 | 16.27455 | -61.79431 | 4890 ft | 240 kts | 33° |
| 2026-04-26 16:51 | 16.28895 | -61.78565 | 4664 ft | 238 kts | 33° |
| 2026-04-26 16:51 | 16.30285 | -61.77657 | 4437 ft | 231 kts | 46° |
| 2026-04-26 16:51 | 16.30993 | -61.76293 | 4186 ft | 208 kts | 90° |
| 2026-04-26 16:52 | 16.30735 | -61.74881 | 4003 ft | 194 kts | 108° |
| 2026-04-26 16:52 | 16.30624 | -61.74443 | 3942 ft | 193 kts | 107° |
| 2026-04-26 16:52 | 16.30143 | -61.72229 | 3581 ft | 183 kts | 106° |
| 2026-04-26 16:52 | 16.29856 | -61.70973 | 3310 ft | 178 kts | 105° |
| 2026-04-26 16:53 | 16.29606 | -61.69738 | 3066 ft | 170 kts | 104° |
| 2026-04-26 16:53 | 16.29381 | -61.68555 | 2831 ft | 163 kts | 104° |
| 2026-04-26 16:53 | 16.29168 | -61.67415 | 2615 ft | 156 kts | 104° |
| 2026-04-26 16:53 | 16.28966 | -61.66330 | 2388 ft | 148 kts | 104° |
| 2026-04-26 16:54 | 16.28837 | -61.65635 | 2293 ft | 149 kts | 103° |
| 2026-04-26 16:54 | 16.28572 | -61.64211 | 2031 ft | 149 kts | 103° |
| 2026-04-26 16:54 | 16.28381 | -61.63183 | 1793 ft | 135 kts | 104° |
| 2026-04-26 16:54 | 16.28263 | -61.62554 | 1683 ft | 136 kts | 102° |
| 2026-04-26 16:55 | 16.28081 | -61.61562 | 1491 ft | 142 kts | 102° |
| 2026-04-26 16:55 | 16.27894 | -61.60550 | 1285 ft | 141 kts | 103° |
| 2026-04-26 16:55 | 16.27708 | -61.59552 | 1099 ft | 140 kts | 104° |
| 2026-04-26 16:55 | 16.27523 | -61.58547 | 905 ft | 140 kts | 102° |
| 2026-04-26 16:56 | 16.27161 | -61.56598 | 536 ft | 134 kts | 102° |
| 2026-04-26 16:56 | 16.26970 | -61.55630 | 296 ft | 137 kts | 104° |
| 2026-04-26 16:56 | 16.26809 | -61.54665 | 81 ft | 137 kts | 102° |
| 2026-04-26 16:57 | 16.26634 | -61.53731 | 22 ft | 113 kts | 101° |
| 2026-04-26 16:57 | 16.26523 | -61.53142 | 19 ft | 52 kts | 101° |
| 2026-04-26 16:57 | 16.26590 | -61.52977 | 19 ft | 11 kts | 9° |
| 2026-04-26 16:58 | 16.26666 | -61.52964 | 20 ft | 11 kts | 11° |
| 2026-04-26 16:58 | 16.26715 | -61.52954 | 20 ft | 8 kts | 11° |
| 2026-04-26 16:58 | 16.26731 | -61.52951 | 20 ft | 0 kts | 11° |
| 2026-04-26 16:59 | 16.26738 | -61.52949 | 20 ft | 8 kts | 11° |
| 2026-04-26 16:59 | 16.26850 | -61.52903 | 21 ft | 8 kts | 30° |
| 2026-04-26 17:00 | 16.26922 | -61.52885 | 20 ft | 3 kts | 11° |
| 2026-04-26 17:00 | 16.26944 | -61.52881 | 20 ft | 2 kts | 9° |
| 2026-04-26 17:00 | 16.26946 | -61.52881 | 20 ft | 0 kts | 9° |